createdAt,value
2023-03-12T00:00:15.531Z,100.00
2023-03-12T00:03:23.406Z,100.00
2023-03-12T00:06:26.317Z,100.00
2023-03-12T00:09:29.462Z,100.00
2023-03-12T00:12:32.338Z,100.00
2023-03-12T00:15:32.315Z,100.00
2023-03-12T00:18:33.423Z,100.00
2023-03-12T00:21:34.523Z,100.00
2023-03-12T00:24:40.338Z,100.00
2023-03-12T00:27:47.297Z,100.00
2023-03-12T00:30:53.562Z,100.00
2023-03-12T00:33:59.345Z,100.00
2023-03-12T00:36:59.603Z,100.00
2023-03-12T00:40:02.321Z,100.00
2023-03-12T00:43:04.413Z,100.00
2023-03-12T00:46:05.468Z,100.00
2023-03-12T00:49:05.376Z,100.00
2023-03-12T00:52:05.417Z,100.00
2023-03-12T00:55:05.367Z,100.00
2023-03-12T00:58:05.387Z,100.00
2023-03-12T01:01:06.030Z,100.00
2023-03-12T01:04:08.488Z,100.00
2023-03-12T01:07:10.420Z,100.00
2023-03-12T01:10:11.472Z,100.00
2023-03-12T01:13:12.437Z,100.00
2023-03-12T01:16:12.458Z,100.00
2023-03-12T01:19:13.401Z,100.00
2023-03-12T01:22:13.868Z,100.00
2023-03-12T01:25:13.505Z,100.00
2023-03-12T01:28:13.567Z,100.00
2023-03-12T01:31:20.537Z,100.00
2023-03-12T01:34:21.385Z,100.00
2023-03-12T01:37:21.474Z,100.00
2023-03-12T01:40:23.455Z,100.00
2023-03-12T01:43:44.453Z,100.00
2023-03-12T01:46:51.468Z,100.00
2023-03-12T01:49:52.477Z,100.00
2023-03-12T01:52:52.470Z,100.00
2023-03-12T01:55:53.507Z,100.00
2023-03-12T01:58:53.630Z,100.00
2023-03-12T02:01:54.632Z,100.00
2023-03-12T02:04:55.964Z,100.00
2023-03-12T02:07:58.637Z,100.00
2023-03-12T02:10:59.495Z,100.00
2023-03-12T02:14:00.502Z,100.00
2023-03-12T02:17:04.500Z,100.00
2023-03-12T02:20:41.551Z,100.00
2023-03-12T02:24:05.510Z,100.00
2023-03-12T02:27:05.565Z,100.00
2023-03-12T02:30:08.521Z,100.00
2023-03-12T02:33:12.761Z,100.00
2023-03-12T02:36:12.664Z,100.00
2023-03-12T02:39:12.531Z,100.00
2023-03-12T02:42:12.576Z,100.00
2023-03-12T02:45:13.567Z,100.00
2023-03-12T02:48:13.572Z,100.00
2023-03-12T02:51:14.687Z,100.00
2023-03-12T02:54:15.581Z,100.00
2023-03-12T02:57:16.603Z,100.00
2023-03-12T03:00:25.614Z,100.00
2023-03-12T03:03:26.589Z,100.00
2023-03-12T03:06:26.619Z,100.00
2023-03-12T03:09:29.621Z,100.00
2023-03-12T03:12:30.609Z,100.00
2023-03-12T03:15:39.794Z,100.00
2023-03-12T03:18:41.688Z,100.00
2023-03-12T03:21:41.631Z,100.00
2023-03-12T03:24:43.334Z,100.00
2023-03-12T03:27:44.818Z,100.00
2023-03-12T03:30:44.695Z,100.00
2023-03-12T03:33:49.873Z,100.00
2023-03-12T03:36:51.637Z,100.00
2023-03-12T03:39:53.656Z,100.00
2023-03-12T03:42:54.866Z,100.00
2023-03-12T03:45:55.700Z,100.00
2023-03-12T03:48:59.703Z,100.00
2023-03-12T03:52:00.162Z,100.00
2023-03-12T03:55:03.704Z,100.00
2023-03-12T03:58:04.791Z,100.00
2023-03-12T04:01:06.687Z,100.00
2023-03-12T04:04:08.717Z,100.00
2023-03-12T04:07:14.713Z,100.00
2023-03-12T04:10:14.732Z,100.00
2023-03-12T04:13:15.765Z,100.00
2023-03-12T04:16:20.767Z,100.00
2023-03-12T04:19:21.853Z,100.00
2023-03-12T04:22:17.798Z,100.00
2023-03-12T04:25:20.747Z,100.00
2023-03-12T04:28:21.725Z,100.00
2023-03-12T04:31:26.172Z,100.00
2023-03-12T04:34:20.759Z,100.00
2023-03-12T04:37:20.786Z,100.00
2023-03-12T04:40:24.798Z,100.00
2023-03-12T04:43:26.720Z,100.00
2023-03-12T04:46:26.804Z,100.00
2023-03-12T04:49:27.795Z,100.00
2023-03-12T04:52:29.001Z,100.00
2023-03-12T04:55:29.787Z,100.00
2023-03-12T04:58:29.847Z,100.00
2023-03-12T05:01:41.805Z,100.00
2023-03-12T05:04:45.779Z,100.00
2023-03-12T05:07:46.797Z,100.00
2023-03-12T05:10:51.834Z,100.00
2023-03-12T05:13:54.830Z,100.00
2023-03-12T05:16:54.860Z,100.00
2023-03-12T05:19:58.905Z,100.00
2023-03-12T05:23:00.850Z,100.00
2023-03-12T05:26:02.907Z,100.00
2023-03-12T05:29:03.846Z,100.00
2023-03-12T05:32:06.837Z,100.00
2023-03-12T05:35:06.834Z,100.00
2023-03-12T05:38:08.921Z,100.00
2023-03-12T05:41:10.884Z,100.00
2023-03-12T05:44:14.961Z,100.00
2023-03-12T05:47:19.864Z,100.00
2023-03-12T05:50:21.896Z,100.00
2023-03-12T05:53:23.961Z,100.00
2023-03-12T05:56:27.915Z,100.00
2023-03-12T05:59:31.152Z,100.00
2023-03-12T06:02:33.038Z,100.00
2023-03-12T06:05:35.186Z,100.00
2023-03-12T06:08:38.979Z,100.00
2023-03-12T06:11:38.905Z,100.00
2023-03-12T06:14:41.998Z,100.00
2023-03-12T06:17:43.374Z,100.00
2023-03-12T06:20:45.118Z,100.00
2023-03-12T06:23:45.958Z,100.00
2023-03-12T06:26:50.961Z,100.00
2023-03-12T06:29:59.518Z,100.00
2023-03-12T06:33:00.114Z,100.00
2023-03-12T06:36:03.126Z,100.00
2023-03-12T06:39:06.352Z,100.00
2023-03-12T06:42:07.100Z,100.00
2023-03-12T06:45:09.029Z,100.00
2023-03-12T06:48:13.986Z,100.00
2023-03-12T06:51:16.008Z,100.00
2023-03-12T06:54:18.980Z,100.00
2023-03-12T06:57:26.025Z,100.00
2023-03-12T07:00:27.980Z,100.00
2023-03-12T07:03:33.341Z,100.00
2023-03-12T07:06:46.624Z,100.00
2023-03-12T07:09:48.042Z,100.00
2023-03-12T07:12:57.026Z,100.00
2023-03-12T07:16:00.129Z,100.00
2023-03-12T07:19:05.115Z,100.00
2023-03-12T07:22:10.426Z,100.00
2023-03-12T07:25:18.963Z,100.00
2023-03-12T07:28:21.030Z,100.00
2023-03-12T07:31:22.175Z,100.00
2023-03-12T07:34:29.165Z,100.00
2023-03-12T07:37:31.065Z,100.00
2023-03-12T07:40:37.118Z,100.00
2023-03-12T07:43:38.145Z,100.00
2023-03-12T07:46:39.382Z,100.00
2023-03-12T07:49:40.132Z,100.00
2023-03-12T07:52:40.313Z,100.00
2023-03-12T07:55:42.233Z,100.00
2023-03-12T07:58:45.265Z,100.00
2023-03-12T08:01:46.485Z,100.00
2023-03-12T08:04:51.242Z,100.00
2023-03-12T08:07:52.136Z,100.00
2023-03-12T08:10:54.658Z,100.00
2023-03-12T08:13:56.198Z,100.00
2023-03-12T08:16:59.300Z,100.00
2023-03-12T08:20:06.121Z,100.00
2023-03-12T08:23:06.147Z,100.00
2023-03-12T08:26:07.310Z,100.00
2023-03-12T08:29:08.143Z,100.00
2023-03-12T08:32:08.162Z,96.75
2023-03-12T08:35:14.419Z,93.28
2023-03-12T08:38:14.198Z,92.34
2023-03-12T08:41:15.147Z,91.19
2023-03-12T08:44:15.184Z,92.12
2023-03-12T08:47:15.287Z,91.86
2023-03-12T08:50:19.202Z,90.67
2023-03-12T08:53:21.721Z,89.16
2023-03-12T08:56:25.224Z,89.37
2023-03-12T08:59:28.281Z,87.84
2023-03-12T09:02:35.241Z,87.23
2023-03-12T09:05:37.053Z,85.74
2023-03-12T09:08:43.230Z,85.85
2023-03-12T09:11:45.973Z,85.49
2023-03-12T09:15:05.186Z,83.73
2023-03-12T09:18:06.221Z,80.63
2023-03-12T09:21:07.586Z,79.18
2023-03-12T09:24:08.313Z,79.51
2023-03-12T09:27:12.206Z,78.66
2023-03-12T09:30:23.314Z,76.05
2023-03-12T09:33:23.395Z,69.25
2023-03-12T09:36:24.221Z,65.77
2023-03-12T09:39:29.282Z,61.52
2023-03-12T09:42:40.422Z,62.99
2023-03-12T09:45:51.316Z,60.54
2023-03-12T09:48:57.346Z,61.51
2023-03-12T09:52:00.262Z,61.09
2023-03-12T09:55:12.416Z,60.07
2023-03-12T09:58:23.195Z,59.84
2023-03-12T10:01:25.547Z,60.49
2023-03-12T10:04:58.164Z,58.18
2023-03-12T10:08:25.101Z,55.51
2023-03-12T10:11:58.333Z,56.44
2023-03-12T10:15:08.362Z,57.18
2023-03-12T10:18:32.463Z,57.72
2023-03-12T10:21:48.315Z,55.73
2023-03-12T10:24:58.350Z,52.54
2023-03-12T10:28:00.342Z,50.49
2023-03-12T10:31:06.546Z,49.94
2023-03-12T10:34:11.364Z,50.43
2023-03-12T10:37:16.443Z,52.18
2023-03-12T10:40:19.142Z,50.46
2023-03-12T10:43:21.379Z,51.90
2023-03-12T10:46:52.472Z,51.90
2023-03-12T10:49:57.398Z,53.62
2023-03-12T10:52:59.348Z,55.01
2023-03-12T10:56:39.644Z,55.75
2023-03-12T10:59:42.401Z,55.65
2023-03-12T11:02:53.388Z,54.47
2023-03-12T11:06:05.421Z,56.62
2023-03-12T11:09:19.596Z,57.78
2023-03-12T11:12:42.557Z,57.12
2023-03-12T11:15:55.451Z,57.15
2023-03-12T11:19:17.807Z,57.90
2023-03-12T11:22:15.714Z,55.64
2023-03-12T11:25:17.660Z,53.46
2023-03-12T11:28:18.526Z,53.44
2023-03-12T11:31:28.597Z,52.32
2023-03-12T11:34:34.434Z,49.07
2023-03-12T11:37:55.670Z,50.32
2023-03-12T11:41:06.628Z,51.02
2023-03-12T11:44:25.477Z,52.42
2023-03-12T11:47:35.854Z,52.86
2023-03-12T11:51:08.485Z,52.63
2023-03-12T11:54:17.496Z,48.72
2023-03-12T11:57:39.481Z,45.26
2023-03-12T12:00:50.507Z,45.13
2023-03-12T12:04:19.581Z,46.01
2023-03-12T12:07:36.549Z,44.71
2023-03-12T12:10:54.493Z,44.88
2023-03-12T12:14:00.503Z,47.15
2023-03-12T12:17:15.521Z,48.15
2023-03-12T12:20:27.510Z,47.52
2023-03-12T12:23:30.565Z,48.51
2023-03-12T12:26:42.618Z,49.63
2023-03-12T12:30:04.604Z,50.10
2023-03-12T12:33:42.670Z,51.24
2023-03-12T12:36:48.230Z,53.18
2023-03-12T12:39:52.625Z,54.71
2023-03-12T12:43:02.614Z,56.27
2023-03-12T12:46:05.615Z,57.74
2023-03-12T12:49:06.629Z,57.91
2023-03-12T12:52:11.603Z,58.22
2023-03-12T12:55:23.644Z,58.69
2023-03-12T12:58:29.998Z,59.64
2023-03-12T13:01:32.774Z,60.92
2023-03-12T13:04:51.822Z,61.50
2023-03-12T13:07:53.665Z,62.03
2023-03-12T13:11:02.503Z,62.48
2023-03-12T13:14:17.756Z,63.39
2023-03-12T13:17:37.677Z,64.04
2023-03-12T13:20:46.344Z,64.99
2023-03-12T13:23:54.798Z,65.77
2023-03-12T13:27:22.349Z,66.96
2023-03-12T13:30:51.822Z,68.07
2023-03-12T13:34:00.517Z,69.72
2023-03-12T13:37:16.719Z,70.99
2023-03-12T13:40:43.813Z,72.22
2023-03-12T13:43:55.436Z,72.46
2023-03-12T13:46:57.773Z,73.38
2023-03-12T13:50:14.961Z,74.64
2023-03-12T13:53:20.770Z,74.73
2023-03-12T13:56:26.219Z,75.52
2023-03-12T13:59:35.488Z,75.90
2023-03-12T14:02:51.443Z,75.80
2023-03-12T14:06:08.714Z,75.72
2023-03-12T14:09:43.759Z,75.37
2023-03-12T14:13:00.877Z,73.21
2023-03-12T14:16:23.752Z,70.93
2023-03-12T14:19:25.756Z,69.80
2023-03-12T14:22:32.751Z,70.46
2023-03-12T14:25:56.941Z,70.01
2023-03-12T14:28:58.745Z,69.86
2023-03-12T14:31:58.768Z,70.46
2023-03-12T14:35:22.980Z,70.77
2023-03-12T14:38:33.762Z,69.78
2023-03-12T14:41:40.763Z,68.92
2023-03-12T14:44:45.305Z,69.25
2023-03-12T14:47:56.776Z,70.18
2023-03-12T14:50:56.887Z,70.38
2023-03-12T14:53:57.839Z,71.37
2023-03-12T14:56:59.190Z,72.45
2023-03-12T15:00:04.820Z,74.36
2023-03-12T15:03:07.830Z,76.81
2023-03-12T15:06:07.826Z,84.67
2023-03-12T15:09:09.851Z,94.62
2023-03-12T15:12:16.039Z,100.00
2023-03-12T15:15:43.949Z,100.00
2023-03-12T15:18:44.847Z,100.00
2023-03-12T15:21:48.840Z,100.00
2023-03-12T15:24:52.891Z,100.00
2023-03-12T15:27:55.915Z,100.00
2023-03-12T15:30:56.050Z,100.00
2023-03-12T15:33:57.922Z,100.00
2023-03-12T15:37:00.871Z,100.00
2023-03-12T15:40:05.881Z,100.00
2023-03-12T15:43:18.991Z,100.00
2023-03-12T15:46:24.953Z,100.00
2023-03-12T15:49:28.166Z,100.00
2023-03-12T15:52:43.881Z,100.00
2023-03-12T15:55:50.921Z,100.00
2023-03-12T15:58:52.935Z,100.00
2023-03-12T16:02:02.952Z,100.00
2023-03-12T16:05:03.957Z,100.00
2023-03-12T16:08:09.398Z,100.00
2023-03-12T16:11:10.281Z,100.00
2023-03-12T16:14:28.123Z,100.00
2023-03-12T16:17:33.453Z,100.00
2023-03-12T16:20:37.793Z,100.00
2023-03-12T16:23:41.175Z,100.00
2023-03-12T16:26:43.494Z,100.00
2023-03-12T16:29:48.931Z,100.00
2023-03-12T16:32:51.999Z,100.00
2023-03-12T16:35:48.174Z,100.00
2023-03-12T16:38:49.980Z,100.00
2023-03-12T16:41:54.954Z,100.00
2023-03-12T16:44:56.985Z,100.00
2023-03-12T16:47:59.036Z,100.00
2023-03-12T16:51:01.993Z,100.00
2023-03-12T16:54:11.424Z,100.00
2023-03-12T16:57:12.103Z,100.00
2023-03-12T17:00:14.032Z,100.00
2023-03-12T17:03:13.986Z,100.00
2023-03-12T17:06:15.032Z,100.00
2023-03-12T17:09:15.992Z,100.00
2023-03-12T17:12:48.234Z,100.00
2023-03-12T17:15:53.114Z,100.00
2023-03-12T17:18:57.130Z,100.00
2023-03-12T17:21:59.552Z,100.00
2023-03-12T17:25:02.008Z,99.82
2023-03-12T17:28:07.090Z,99.78
2023-03-12T17:31:12.124Z,100.00
2023-03-12T17:34:13.039Z,100.00
2023-03-12T17:37:15.054Z,100.00
2023-03-12T17:40:16.063Z,100.00
2023-03-12T17:43:18.531Z,100.00
2023-03-12T17:46:21.332Z,100.00
2023-03-12T17:49:23.266Z,100.00
2023-03-12T17:52:24.156Z,100.00
2023-03-12T17:55:26.183Z,100.00
2023-03-12T17:58:27.206Z,100.00
2023-03-12T18:01:27.158Z,100.00
2023-03-12T18:04:29.321Z,100.00
2023-03-12T18:07:32.164Z,100.00
2023-03-12T18:10:33.254Z,100.00
2023-03-12T18:13:38.872Z,100.00
2023-03-12T18:16:41.274Z,100.00
2023-03-12T18:19:44.190Z,100.00
2023-03-12T18:22:44.249Z,100.00
2023-03-12T18:25:44.112Z,100.00
2023-03-12T18:28:46.350Z,100.00
2023-03-12T18:31:47.156Z,100.00
2023-03-12T18:34:50.376Z,100.00
2023-03-12T18:37:52.181Z,100.00
2023-03-12T18:40:53.585Z,100.00
2023-03-12T18:43:53.182Z,100.00
2023-03-12T18:46:56.238Z,100.00
2023-03-12T18:49:59.904Z,100.00
2023-03-12T18:53:05.173Z,100.00
2023-03-12T18:56:06.195Z,100.00
2023-03-12T18:59:07.348Z,100.00
2023-03-12T19:02:07.385Z,100.00
2023-03-12T19:05:08.580Z,100.00
2023-03-12T19:08:08.691Z,100.00
2023-03-12T19:11:12.256Z,100.00
2023-03-12T19:14:12.243Z,100.00
2023-03-12T19:17:16.291Z,100.00
2023-03-12T19:20:16.246Z,100.00
2023-03-12T19:23:22.262Z,100.00
2023-03-12T19:26:24.265Z,100.00
2023-03-12T19:29:25.661Z,100.00
2023-03-12T19:32:33.345Z,100.00
2023-03-12T19:35:43.410Z,100.00
2023-03-12T19:38:44.260Z,100.00
2023-03-12T19:41:46.269Z,100.00
2023-03-12T19:44:49.336Z,100.00
2023-03-12T19:47:52.430Z,100.00
2023-03-12T19:50:57.276Z,100.00
2023-03-12T19:54:05.549Z,100.00
2023-03-12T19:57:07.372Z,100.00
2023-03-12T20:00:14.317Z,100.00
2023-03-12T20:03:14.486Z,100.00
2023-03-12T20:06:15.314Z,100.00
2023-03-12T20:09:15.338Z,100.00
2023-03-12T20:12:24.371Z,100.00
2023-03-12T20:15:24.327Z,100.00
2023-03-12T20:18:26.434Z,100.00
2023-03-12T20:21:29.591Z,100.00
2023-03-12T20:24:31.362Z,100.00
2023-03-12T20:27:33.624Z,100.00
2023-03-12T20:30:34.949Z,100.00
2023-03-12T20:33:39.657Z,100.00
2023-03-12T20:36:44.385Z,100.00
2023-03-12T20:39:44.417Z,100.00
2023-03-12T20:42:48.678Z,100.00
2023-03-12T20:45:51.402Z,99.63
2023-03-12T20:48:56.823Z,97.02
2023-03-12T20:51:57.852Z,95.26
2023-03-12T20:54:59.376Z,91.87
2023-03-12T20:58:00.572Z,90.87
2023-03-12T21:01:02.675Z,90.88
2023-03-12T21:04:11.425Z,91.00
2023-03-12T21:07:16.436Z,91.76
2023-03-12T21:10:16.412Z,91.83
2023-03-12T21:13:18.687Z,92.62
2023-03-12T21:16:20.584Z,93.07
2023-03-12T21:19:20.455Z,93.54
2023-03-12T21:22:21.653Z,93.95
2023-03-12T21:25:22.564Z,94.45
2023-03-12T21:28:24.519Z,94.57
2023-03-12T21:31:30.405Z,94.66
2023-03-12T21:34:30.667Z,93.72
2023-03-12T21:37:30.534Z,93.33
2023-03-12T21:40:30.678Z,92.78
2023-03-12T21:43:30.613Z,93.07
2023-03-12T21:46:33.724Z,92.66
2023-03-12T21:49:33.550Z,91.61
2023-03-12T21:52:34.565Z,91.71
2023-03-12T21:55:34.539Z,92.05
2023-03-12T21:58:44.574Z,91.63
2023-03-12T22:01:44.688Z,91.66
2023-03-12T22:04:45.652Z,91.91
2023-03-12T22:07:49.607Z,91.88
2023-03-12T22:10:51.652Z,92.21
2023-03-12T22:13:54.921Z,91.98
2023-03-12T22:16:58.726Z,91.96
2023-03-12T22:20:12.569Z,92.06
2023-03-12T22:23:12.595Z,92.24
2023-03-12T22:26:15.590Z,92.58
2023-03-12T22:29:19.589Z,92.72
2023-03-12T22:32:19.615Z,92.94
2023-03-12T22:35:21.604Z,92.96
2023-03-12T22:38:22.983Z,93.15
2023-03-12T22:41:31.667Z,93.44
2023-03-12T22:44:32.646Z,93.61
2023-03-12T22:47:38.650Z,94.15
2023-03-12T22:50:39.708Z,94.41
2023-03-12T22:53:42.662Z,94.82
2023-03-12T22:56:43.481Z,95.59
2023-03-12T22:59:44.763Z,95.97
2023-03-12T23:02:44.698Z,96.64
2023-03-12T23:05:44.661Z,96.97
2023-03-12T23:08:47.077Z,97.43
2023-03-12T23:11:47.807Z,97.92
2023-03-12T23:14:49.937Z,98.38
2023-03-12T23:17:55.713Z,98.96
2023-03-12T23:20:55.729Z,99.58
2023-03-12T23:23:55.702Z,100.00
2023-03-12T23:26:56.669Z,100.00
2023-03-12T23:29:57.750Z,100.00
2023-03-12T23:32:59.852Z,100.00
2023-03-12T23:36:15.921Z,100.00
2023-03-12T23:39:15.703Z,100.00
2023-03-12T23:42:16.905Z,100.00
2023-03-12T23:45:16.772Z,100.00
2023-03-12T23:48:17.869Z,100.00
2023-03-12T23:51:26.771Z,100.00
2023-03-12T23:54:27.772Z,100.00
2023-03-12T23:57:28.786Z,100.00
